Hickman, Tennessee
Current Conditions -  °F | °C
As of 4:35 PM on Sunday 23 Nov 2014 (Local Time) from KSRB Reporting Station
Overcast Overcast  
Wind Chill: 57°   Ceiling: 2300
Heat Index: 57°   Visibility: 5mi
Dew Point: 55°   Wind: 15mph
Humidity: 94%   Direction: 190°S
Pressure: 29.49"   Gusts: 23mph
Location:  36.14°N, 85.94°W
Report Text: KSRB 232235Z AUTO 19013G20KT 5SM SCT016 BKN023 OVC038 14/13 A2949 RMK
Loading
Personal Weather Stations






























Interactive Weather Map New forecast layout! Learn more

10-Day Weather Forecast

Advertisements
Track Severe Weather on mobile